55NC weather

Lenoir Memorial Hospital Heliport
Kinston, North Carolina, United States

Public forecast

Using degrees Fahrenheit for public forecast. Weather courtesy of forecast.io.

Closest aviation weather report (METAR) to Lenoir Memorial Hospital Heliport

Closest report is Kinston Regional Jetport At Stallings Field, 2.8 nm (5.1 km) NNW. Retrieved 2020/05/26 15:56 UTC (39 minutes ago):

KISO 261556Z 08008KT 10SM OVC009 22/17 A3019

Closest aviation forecast (TAF) to Lenoir Memorial Hospital Heliport

Closest forecast is Kinston Regional Jetport At Stallings Field, 2.8 nm (5.1 km) NNW. Retrieved 2020/05/26 12:42 UTC (4 hours ago):

TAF KISO 261140Z 2612/2712 05008KT P6SM OVC008 FM261600 06006KT P6SM BKN015 FM261800 08005KT P6SM BKN035 FM270400 08004KT P6SM BKN015 FM270700 06004KT P6SM OVC008 AMD LTD TO CLD VIS AND WIND